Time;durP1;ratioP1;P1;durP2;ratioP2;P2;SDS_P1;SDS_P2;PMS_P1;PMS_P2;Temp;Humidity;BMP_temperature;BMP_pressure;BME280_temperature;BME280_humidity;BME280_pressure;Samples;Min_cycle;Max_cycle;Signal;HPM_P1;HPM_P2
2024/02/22 00:01:13;;;;;;;;;;;;;;;24.82;21.75;97775.72;5104616;28;19953;-79
2024/02/22 00:03:39;;;;;;;;;;;;;;;25.12;21.29;97775.19;5093905;28;19923;-80
2024/02/22 00:06:05;;;;;;;;;;;;;;;25.19;20.64;97777.78;5093861;28;20437;-79
2024/02/22 00:08:31;;;;;;;;;;;;;;;25.45;20.34;97770.97;5093952;28;19923;-79
2024/02/22 00:10:58;;;;;;;;;;;;;;;25.45;20.50;97765.34;5094894;28;20407;-79
2024/02/22 00:13:24;;;;;;;;;;;;;;;25.59;20.16;97756.44;5093901;28;20397;-79
2024/02/22 00:15:50;;;;;;;;;;;;;;;25.42;20.22;97746.53;5093535;28;19916;-79
2024/02/22 00:18:16;;;;;;;;;;;;;;;25.58;20.21;97740.78;5092864;28;19961;-79
2024/02/22 00:20:42;;;;;;;;;;;;;;;25.17;20.46;97744.53;5093862;28;19924;-79
2024/02/22 00:23:08;;;;;;;;;;;;;;;24.90;21.04;97738.53;5094073;28;20002;-79
2024/02/22 00:25:34;;;;;;;;;;;;;;;24.83;21.00;97738.78;5093220;28;19920;-79
2024/02/22 00:28:00;;;;;;;;;;;;;;;24.55;21.44;97739.59;5094664;28;19916;-79
2024/02/22 00:30:27;;;;;;;;;;;;;;;24.42;21.70;97736.75;5093079;28;19924;-79
2024/02/22 00:32:53;;;;;;;;;;;;;;;24.69;21.52;97736.38;5093444;28;20347;-79
2024/02/22 00:35:19;;;;;;;;;;;;;;;24.92;21.18;97730.47;5093788;28;20432;-79
2024/02/22 00:37:45;;;;;;;;;;;;;;;25.19;21.05;97733.63;5093245;28;19920;-79
2024/02/22 00:40:14;;;;;;;;;;;;;;;25.23;21.18;97727.88;5093736;28;19948;-79
2024/02/22 00:42:40;;;;;;;;;;;;;;;25.22;20.93;97738.34;5093249;28;19916;-79
2024/02/22 00:45:07;;;;;;;;;;;;;;;25.33;20.82;97741.59;5108474;27;19919;-80
2024/02/22 00:47:33;;;;;;;;;;;;;;;25.23;21.09;97745.53;5134204;27;19923;-79
2024/02/22 00:49:59;;;;;;;;;;;;;;;25.37;20.94;97742.25;5134326;27;20063;-79
2024/02/22 00:52:25;;;;;;;;;;;;;;;25.65;20.42;97734.94;5134267;27;19958;-79
2024/02/22 00:54:51;;;;;;;;;;;;;;;25.91;19.72;97727.22;5115542;28;19920;-79
2024/02/22 00:57:17;;;;;;;;;;;;;;;25.91;19.30;97721.59;5130410;27;19963;-79
2024/02/22 00:59:43;;;;;;;;;;;;;;;25.92;19.24;97723.97;5112838;28;19923;-79
2024/02/22 01:02:10;;;;;;;;;;;;;;;25.80;19.68;97721.97;5098372;28;19916;-79
2024/02/22 01:04:37;;;;;;;;;;;;;;;25.87;19.84;97712.50;5093172;28;20393;-79
2024/02/22 01:07:03;;;;;;;;;;;;;;;25.66;20.00;97711.22;5095846;28;19920;-79
2024/02/22 01:09:29;;;;;;;;;;;;;;;25.44;19.91;97704.72;5110499;28;19959;-79
2024/02/22 01:11:55;;;;;;;;;;;;;;;25.38;19.87;97700.88;5092994;28;19923;-79
2024/02/22 01:14:21;;;;;;;;;;;;;;;25.22;20.29;97690.56;5111231;28;20002;-79
2024/02/22 01:16:50;;;;;;;;;;;;;;;25.36;20.21;97681.69;5113468;28;19915;-79
2024/02/22 01:19:16;;;;;;;;;;;;;;;25.22;20.43;97679.34;5111646;28;20361;-79
2024/02/22 01:21:43;;;;;;;;;;;;;;;25.12;20.68;97672.03;5112448;28;20384;-79
2024/02/22 01:24:09;;;;;;;;;;;;;;;25.22;20.74;97679.34;5092768;28;19923;-79
2024/02/22 01:26:35;;;;;;;;;;;;;;;25.24;20.88;97670.44;5092738;28;19920;-79
2024/02/22 01:29:03;;;;;;;;;;;;;;;24.86;20.91;97669.66;5093885;28;19923;-79
2024/02/22 01:31:30;;;;;;;;;;;;;;;24.84;21.12;97660.91;5101166;28;19920;-79
2024/02/22 01:33:56;;;;;;;;;;;;;;;24.82;21.19;97658.56;5098703;28;20425;-79
2024/02/22 01:36:22;;;;;;;;;;;;;;;24.82;21.07;97652.16;5100194;28;19928;-79
2024/02/22 01:38:48;;;;;;;;;;;;;;;24.91;21.28;97652.25;5096624;28;20016;-79
2024/02/22 01:41:15;;;;;;;;;;;;;;;25.15;21.15;97648.66;5100377;28;19916;-79
2024/02/22 01:43:41;;;;;;;;;;;;;;;25.25;20.99;97641.13;5116900;28;19916;-79
2024/02/22 01:46:08;;;;;;;;;;;;;;;25.32;20.69;97636.03;5116963;28;19972;-79
2024/02/22 01:48:34;;;;;;;;;;;;;;;25.21;21.07;97629.97;5116386;28;20315;-79
2024/02/22 01:51:00;;;;;;;;;;;;;;;25.25;20.94;97622.22;5117120;28;19954;-79
2024/02/22 01:53:27;;;;;;;;;;;;;;;25.32;20.45;97619.16;5115324;28;19920;-79
2024/02/22 01:55:57;;;;;;;;;;;;;;;25.33;20.78;97617.94;5109348;28;19955;-79
2024/02/22 01:58:24;;;;;;;;;;;;;;;25.33;20.52;97612.31;5095917;28;19923;-79
2024/02/22 02:00:50;;;;;;;;;;;;;;;25.35;20.78;97612.63;5077782;28;20332;-79
2024/02/22 02:03:16;;;;;;;;;;;;;;;25.34;20.63;97604.69;5095938;28;20400;-80
2024/02/22 02:05:46;;;;;;;;;;;;;;;25.33;20.41;97603.09;5096516;28;19921;-80
2024/02/22 02:08:12;;;;;;;;;;;;;;;25.53;20.68;97600.03;5096089;28;19916;-79
2024/02/22 02:10:38;;;;;;;;;;;;;;;25.45;20.86;97596.69;5078792;28;20297;-79
2024/02/22 02:13:05;;;;;;;;;;;;;;;25.20;20.42;97588.31;5095684;28;20273;-79
2024/02/22 02:15:32;;;;;;;;;;;;;;;25.32;20.91;97581.88;5096073;28;19916;-79
2024/02/22 02:17:59;;;;;;;;;;;;;;;25.50;20.23;97582.06;5096146;28;19923;-79
2024/02/22 02:20:32;;;;;;;;;;;;;;;25.44;20.44;97575.41;5095705;28;19923;-79
2024/02/22 02:23:00;;;;;;;;;;;;;;;25.47;20.38;97565.28;5103367;28;19923;-79
2024/02/22 02:25:28;;;;;;;;;;;;;;;25.23;20.60;97565.69;5115463;28;19916;-79
2024/02/22 02:27:55;;;;;;;;;;;;;;;25.33;20.45;97558.13;5115246;28;19923;-79
2024/02/22 02:30:21;;;;;;;;;;;;;;;25.14;20.74;97562.78;5116017;28;19976;-79
2024/02/22 02:32:47;;;;;;;;;;;;;;;25.18;20.64;97559.88;5115832;28;20354;-79
2024/02/22 02:35:13;;;;;;;;;;;;;;;25.10;20.61;97553.72;5111431;28;20295;-79
2024/02/22 02:37:39;;;;;;;;;;;;;;;25.12;20.39;97554.03;5096553;28;19963;-79
2024/02/22 02:40:05;;;;;;;;;;;;;;;25.31;20.43;97547.34;5102519;28;19916;-79
2024/02/22 02:42:31;;;;;;;;;;;;;;;24.99;20.87;97533.63;5095624;28;20370;-79
2024/02/22 02:44:57;;;;;;;;;;;;;;;25.23;20.54;97539.59;5095850;28;19923;-80
2024/02/22 02:47:23;;;;;;;;;;;;;;;25.05;20.37;97540.25;5095505;28;19916;-79
2024/02/22 02:49:49;;;;;;;;;;;;;;;24.90;21.10;97535.56;5095544;28;19998;-79
2024/02/22 02:52:15;;;;;;;;;;;;;;;24.91;20.68;97529.47;5095326;28;19922;-79
2024/02/22 02:54:41;;;;;;;;;;;;;;;24.87;20.75;97523.22;5095067;28;19920;-79
2024/02/22 02:57:07;;;;;;;;;;;;;;;24.82;21.03;97523.00;5095906;28;20014;-79
2024/02/22 02:59:33;;;;;;;;;;;;;;;25.17;20.29;97516.94;5095769;28;19916;-79
2024/02/22 03:02:00;;;;;;;;;;;;;;;25.30;19.99;97517.66;5109888;28;19927;-79
2024/02/22 03:04:26;;;;;;;;;;;;;;;25.44;19.76;97516.41;5115236;28;19962;-79
2024/02/22 03:06:52;;;;;;;;;;;;;;;25.28;20.10;97517.34;5115113;28;19959;-79
2024/02/22 03:09:18;;;;;;;;;;;;;;;25.21;20.04;97508.38;5115231;28;19920;-79
2024/02/22 03:11:44;;;;;;;;;;;;;;;25.28;19.96;97508.91;5099228;28;19916;-79
2024/02/22 03:14:10;;;;;;;;;;;;;;;25.31;19.91;97504.41;5111216;28;20376;-79
2024/02/22 03:16:37;;;;;;;;;;;;;;;25.45;20.08;97508.75;5114567;28;19954;-79
2024/02/22 03:19:03;;;;;;;;;;;;;;;25.51;19.69;97496.47;5112732;28;20422;-79
2024/02/22 03:21:30;;;;;;;;;;;;;;;25.39;20.24;97492.44;5094883;28;19916;-79
2024/02/22 03:23:56;;;;;;;;;;;;;;;25.48;20.12;97483.34;5076941;28;20360;-79
2024/02/22 03:26:23;;;;;;;;;;;;;;;25.29;20.33;97473.97;5094529;28;19924;-79
2024/02/22 03:28:51;;;;;;;;;;;;;;;25.25;20.26;97478.16;5095027;28;19961;-79
2024/02/22 03:31:18;;;;;;;;;;;;;;;25.23;20.28;97472.16;5095108;28;19952;-79
2024/02/22 03:33:44;;;;;;;;;;;;;;;25.24;20.06;97471.72;5096703;28;20010;-79
2024/02/22 03:36:11;;;;;;;;;;;;;;;25.52;19.69;97469.94;5114707;28;20296;-79
2024/02/22 03:38:37;;;;;;;;;;;;;;;25.40;19.92;97465.91;5114405;28;19923;-79
2024/02/22 03:41:04;;;;;;;;;;;;;;;25.57;19.95;97468.56;5114596;28;19969;-79
2024/02/22 03:43:30;;;;;;;;;;;;;;;25.70;19.84;97458.78;5114665;28;20010;-79
2024/02/22 03:45:56;;;;;;;;;;;;;;;25.56;19.80;97458.53;5114355;28;19927;-79
2024/02/22 03:48:22;;;;;;;;;;;;;;;25.68;19.71;97455.66;5095505;28;19922;-79
2024/02/22 03:50:48;;;;;;;;;;;;;;;25.62;19.95;97460.31;5112891;28;19954;-79
2024/02/22 03:53:15;;;;;;;;;;;;;;;25.53;20.06;97445.41;5114104;28;19923;-79
2024/02/22 03:55:41;;;;;;;;;;;;;;;25.53;20.04;97439.81;5114416;28;19915;-79
2024/02/22 03:58:07;;;;;;;;;;;;;;;25.70;19.91;97446.75;5114767;28;20284;-79
2024/02/22 04:00:33;;;;;;;;;;;;;;;25.68;19.88;97438.78;5103702;28;19923;-79
2024/02/22 04:02:59;;;;;;;;;;;;;;;25.67;19.91;97436.44;5109598;28;19926;-79
2024/02/22 04:05:25;;;;;;;;;;;;;;;25.72;20.16;97452.72;5105739;28;19920;-79
2024/02/22 04:07:51;;;;;;;;;;;;;;;25.83;19.66;97441.84;5112316;28;19927;-79
2024/02/22 04:10:17;;;;;;;;;;;;;;;25.89;19.88;97442.78;5114130;28;19920;-79
2024/02/22 04:12:43;;;;;;;;;;;;;;;25.96;19.62;97442.53;5114065;28;19933;-79
2024/02/22 04:15:10;;;;;;;;;;;;;;;25.95;19.72;97440.97;5114295;28;19955;-79
2024/02/22 04:17:37;;;;;;;;;;;;;;;25.84;19.59;97440.56;5113687;28;19920;-79
2024/02/22 04:20:03;;;;;;;;;;;;;;;25.77;19.60;97435.22;5093895;28;20353;-80
2024/02/22 04:22:32;;;;;;;;;;;;;;;26.00;19.26;97427.06;5093954;28;19916;-79
2024/02/22 04:24:58;;;;;;;;;;;;;;;26.13;19.35;97418.56;5094719;28;20400;-80
2024/02/22 04:27:24;;;;;;;;;;;;;;;26.00;19.84;97417.84;5075463;28;20270;-80
2024/02/22 04:29:50;;;;;;;;;;;;;;;26.16;19.41;97417.63;5093669;28;20366;-79
2024/02/22 04:32:16;;;;;;;;;;;;;;;26.03;19.40;97414.09;5093778;28;20355;-79
2024/02/22 04:34:43;;;;;;;;;;;;;;;26.02;19.64;97404.13;5093316;28;19927;-79
2024/02/22 04:37:09;;;;;;;;;;;;;;;26.25;19.14;97397.16;5108010;28;20369;-79
2024/02/22 04:39:35;;;;;;;;;;;;;;;26.23;19.37;97391.22;5111930;28;19915;-80
2024/02/22 04:42:01;;;;;;;;;;;;;;;26.05;19.32;97394.72;5079613;28;20282;-79
2024/02/22 04:44:27;;;;;;;;;;;;;;;26.03;19.38;97383.94;5093144;28;19912;-79
2024/02/22 04:46:53;;;;;;;;;;;;;;;26.30;19.20;97399.38;5093261;28;19923;-79
2024/02/22 04:49:19;;;;;;;;;;;;;;;26.52;18.98;97378.28;5093292;28;20369;-80
2024/02/22 04:51:45;;;;;;;;;;;;;;;26.61;18.73;97378.31;5093016;28;19923;-79
2024/02/22 04:54:11;;;;;;;;;;;;;;;26.92;18.44;97366.91;5098875;28;19916;-79
2024/02/22 04:56:37;;;;;;;;;;;;;;;26.66;18.97;97369.22;5112523;28;19915;-79
2024/02/22 04:59:04;;;;;;;;;;;;;;;26.68;19.03;97368.75;5112214;28;19923;-79
2024/02/22 05:01:30;;;;;;;;;;;;;;;26.78;18.63;97366.75;5113633;28;19927;-79
2024/02/22 05:03:56;;;;;;;;;;;;;;;26.84;18.96;97370.53;5116630;28;19919;-80
2024/02/22 05:06:22;;;;;;;;;;;;;;;26.95;18.60;97362.38;5112858;28;19920;-79
2024/02/22 05:08:48;;;;;;;;;;;;;;;26.96;18.68;97361.91;5081407;28;19928;-80
2024/02/22 05:11:14;;;;;;;;;;;;;;;26.99;18.75;97354.53;5099737;28;19916;-79
2024/02/22 05:13:42;;;;;;;;;;;;;;;26.85;18.82;97361.59;5113106;28;19939;-80
2024/02/22 05:16:08;;;;;;;;;;;;;;;26.81;18.83;97363.00;5118510;28;19926;-79
2024/02/22 05:18:34;;;;;;;;;;;;;;;26.83;18.99;97363.31;5099703;28;20292;-79
2024/02/22 05:21:00;;;;;;;;;;;;;;;26.99;18.84;97357.34;5099568;28;19916;-79
2024/02/22 05:23:26;;;;;;;;;;;;;;;27.00;18.86;97359.69;5099776;28;19916;-79
2024/02/22 05:25:53;;;;;;;;;;;;;;;26.73;18.52;97366.09;5099718;28;19923;-80
2024/02/22 05:28:19;;;;;;;;;;;;;;;26.62;19.09;97357.34;5099587;28;19917;-80
2024/02/22 05:30:45;;;;;;;;;;;;;;;26.76;18.61;97353.16;5100278;28;19916;-80
2024/02/22 05:33:11;;;;;;;;;;;;;;;26.96;18.89;97355.47;5100924;28;19912;-80
2024/02/22 05:35:37;;;;;;;;;;;;;;;27.24;18.91;97354.19;5111650;28;19923;-79
2024/02/22 05:38:04;;;;;;;;;;;;;;;27.55;18.28;97363.22;5099332;28;19916;-80
2024/02/22 05:40:30;;;;;;;;;;;;;;;27.57;18.45;97354.28;5099009;28;19916;-80
2024/02/22 05:42:56;;;;;;;;;;;;;;;27.50;18.99;97352.59;5099480;28;19916;-80
2024/02/22 05:45:35;;;;;;;;;;;;;;;27.23;19.29;97355.44;5099264;28;20025;-79
2024/02/22 05:48:01;;;;;;;;;;;;;;;26.90;19.33;97360.97;5099850;28;20400;-80
2024/02/22 05:50:27;;;;;;;;;;;;;;;27.13;19.00;97360.31;5100039;28;19911;-80
2024/02/22 05:52:54;;;;;;;;;;;;;;;27.44;18.79;97357.31;5105542;28;19968;-79
2024/02/22 05:55:20;;;;;;;;;;;;;;;27.20;19.21;97353.56;5119892;28;20288;-79
2024/02/22 05:57:46;;;;;;;;;;;;;;;26.37;20.11;97357.63;5119847;28;19915;-80
2024/02/22 06:00:14;;;;;;;;;;;;;;;26.58;19.68;97361.56;5119806;28;20444;-79
2024/02/22 06:02:40;;;;;;;;;;;;;;;27.04;18.76;97351.88;5101458;28;19923;-79
2024/02/22 06:05:07;;;;;;;;;;;;;;;27.41;19.21;97352.63;5118472;28;19932;-80
2024/02/22 06:07:33;;;;;;;;;;;;;;;27.45;19.40;97347.59;5110259;28;20058;-80
2024/02/22 06:09:59;;;;;;;;;;;;;;;27.50;19.21;97343.34;5098934;28;19961;-79
2024/02/22 06:12:25;;;;;;;;;;;;;;;27.32;19.08;97350.59;5099154;28;20336;-80
2024/02/22 06:14:51;;;;;;;;;;;;;;;26.74;20.10;97350.78;5098175;28;19912;-79
2024/02/22 06:17:17;;;;;;;;;;;;;;;26.85;19.75;97343.91;5095917;28;19962;-79
2024/02/22 06:19:43;;;;;;;;;;;;;;;26.94;19.63;97327.78;5095717;28;19916;-80
2024/02/22 06:22:09;;;;;;;;;;;;;;;26.82;20.38;97317.47;5096294;28;20289;-80
2024/02/22 06:24:35;;;;;;;;;;;;;;;26.59;20.34;97309.63;5097052;28;20373;-80
2024/02/22 06:27:02;;;;;;;;;;;;;;;25.96;20.99;97327.19;5095873;28;19916;-80
2024/02/22 06:29:28;;;;;;;;;;;;;;;25.86;20.99;97339.66;5096150;28;19972;-80
2024/02/22 06:31:55;;;;;;;;;;;;;;;26.13;20.73;97347.41;5095920;28;19923;-80
2024/02/22 06:34:21;;;;;;;;;;;;;;;26.72;19.96;97330.72;5095404;28;19955;-80
2024/02/22 06:36:47;;;;;;;;;;;;;;;27.32;19.93;97327.25;5077585;28;19920;-80
2024/02/22 06:39:13;;;;;;;;;;;;;;;27.76;19.64;97319.09;5096044;28;19912;-80
2024/02/22 06:41:39;;;;;;;;;;;;;;;28.02;19.86;97312.59;5113478;28;20011;-80
2024/02/22 06:44:05;;;;;;;;;;;;;;;27.68;19.33;97303.81;5115849;28;20389;-80
2024/02/22 06:46:31;;;;;;;;;;;;;;;27.66;19.19;97311.94;5115572;28;19927;-80
2024/02/22 06:48:58;;;;;;;;;;;;;;;27.65;19.81;97310.38;5097101;28;19923;-80
2024/02/22 06:51:24;;;;;;;;;;;;;;;27.68;19.02;97296.09;5115575;28;19926;-80
2024/02/22 06:53:50;;;;;;;;;;;;;;;27.62;19.12;97288.78;5115428;28;19916;-80
2024/02/22 06:56:16;;;;;;;;;;;;;;;27.34;20.53;97288.06;5114943;28;20341;-80
2024/02/22 06:58:42;;;;;;;;;;;;;;;27.29;19.85;97277.44;5113986;28;19969;-80
2024/02/22 07:01:08;;;;;;;;;;;;;;;27.11;19.55;97271.88;5115608;28;19927;-80
2024/02/22 07:03:34;;;;;;;;;;;;;;;26.80;20.15;97271.28;5115257;28;20350;-80
2024/02/22 07:06:00;;;;;;;;;;;;;;;27.20;19.89;97269.00;5106977;28;20392;-80
2024/02/22 07:08:28;;;;;;;;;;;;;;;26.89;19.82;97257.97;5099858;28;20434;-80
2024/02/22 07:10:54;;;;;;;;;;;;;;;27.43;19.77;97259.88;5115632;28;19915;-80
2024/02/22 07:13:20;;;;;;;;;;;;;;;27.68;18.76;97256.59;5095755;28;20007;-80
2024/02/22 07:15:46;;;;;;;;;;;;;;;27.89;19.07;97249.16;5095618;28;19916;-80
2024/02/22 07:18:12;;;;;;;;;;;;;;;27.85;18.71;97246.50;5076526;28;20400;-80
2024/02/22 07:20:38;;;;;;;;;;;;;;;28.04;18.80;97244.34;5094813;28;19924;-80
2024/02/22 07:23:05;;;;;;;;;;;;;;;28.04;18.40;97241.53;5094909;28;19922;-80
2024/02/22 07:25:31;;;;;;;;;;;;;;;27.75;19.24;97247.78;5094665;28;20401;-80
2024/02/22 07:27:57;;;;;;;;;;;;;;;27.78;19.04;97232.75;5094160;28;19916;-80
2024/02/22 07:30:26;;;;;;;;;;;;;;;28.11;18.49;97241.16;5095329;28;20323;-80
2024/02/22 07:32:52;;;;;;;;;;;;;;;28.50;18.97;97239.91;5095964;28;19917;-80
2024/02/22 07:35:18;;;;;;;;;;;;;;;29.12;18.25;97234.13;5094375;28;19920;-80
2024/02/22 07:37:44;;;;;;;;;;;;;;;29.45;17.55;97235.97;5094815;28;19927;-80
2024/02/22 07:40:10;;;;;;;;;;;;;;;29.31;17.36;97232.66;5126106;27;19915;-80
2024/02/22 07:42:36;;;;;;;;;;;;;;;29.07;18.23;97231.97;5114839;28;19923;-80
2024/02/22 07:45:04;;;;;;;;;;;;;;;29.14;17.87;97233.63;5102567;28;19930;-80
2024/02/22 07:47:30;;;;;;;;;;;;;;;28.63;17.92;97214.25;5114376;28;19983;-80
2024/02/22 07:49:56;;;;;;;;;;;;;;;28.50;18.83;97219.34;5104510;28;19915;-80
2024/02/22 07:52:22;;;;;;;;;;;;;;;28.18;18.23;97214.63;5114682;28;19922;-80
2024/02/22 07:54:48;;;;;;;;;;;;;;;28.08;18.46;97213.16;5114250;28;20517;-80
2024/02/22 07:57:14;;;;;;;;;;;;;;;27.91;18.04;97209.94;5114583;28;19955;-80
2024/02/22 07:59:40;;;;;;;;;;;;;;;27.74;18.58;97208.78;5114454;28;19999;-80
2024/02/22 08:02:06;;;;;;;;;;;;;;;27.32;18.96;97204.00;5113702;28;19916;-80
2024/02/22 08:04:32;;;;;;;;;;;;;;;27.01;18.96;97202.69;5094132;28;20297;-80
2024/02/22 08:06:58;;;;;;;;;;;;;;;27.04;19.05;97207.38;5106602;28;19924;-80
2024/02/22 08:09:24;;;;;;;;;;;;;;;27.65;18.71;97203.22;5114464;28;19916;-80
2024/02/22 08:11:50;;;;;;;;;;;;;;;28.13;18.24;97206.81;5114079;28;19912;-80
2024/02/22 08:14:16;;;;;;;;;;;;;;;28.21;18.19;97196.72;5096282;28;19920;-80
2024/02/22 08:16:42;;;;;;;;;;;;;;;28.18;18.13;97195.63;5093719;28;19926;-80
2024/02/22 08:19:08;;;;;;;;;;;;;;;28.47;17.80;97192.84;5094184;28;19919;-80
2024/02/22 08:21:35;;;;;;;;;;;;;;;28.22;18.32;97198.25;5093949;28;19923;-80
2024/02/22 08:24:01;;;;;;;;;;;;;;;28.26;18.18;97193.22;5094686;28;20312;-80
2024/02/22 08:26:27;;;;;;;;;;;;;;;27.87;18.59;97193.19;5093441;28;19916;-80
2024/02/22 08:28:53;;;;;;;;;;;;;;;27.85;19.28;97186.47;5093448;28;19923;-80
2024/02/22 08:31:19;;;;;;;;;;;;;;;27.72;18.92;97185.94;5093522;28;19916;-80
2024/02/22 08:33:47;;;;;;;;;;;;;;;27.67;19.11;97178.13;5094822;28;19934;-80
2024/02/22 08:36:13;;;;;;;;;;;;;;;28.32;18.74;97180.00;5101052;28;19920;-80
2024/02/22 08:38:40;;;;;;;;;;;;;;;27.29;19.86;97175.97;5092754;28;19923;-80
2024/02/22 08:41:06;;;;;;;;;;;;;;;27.10;19.81;97166.03;5094573;28;19923;-80
2024/02/22 08:43:32;;;;;;;;;;;;;;;27.36;19.21;97167.16;5093120;28;19923;-80
2024/02/22 08:45:58;;;;;;;;;;;;;;;27.25;19.66;97164.09;5092990;28;19920;-80
2024/02/22 08:48:25;;;;;;;;;;;;;;;27.92;18.76;97164.31;5093681;28;20391;-80
2024/02/22 08:50:54;;;;;;;;;;;;;;;27.57;19.41;97160.47;5113511;28;20018;-80
2024/02/22 08:53:20;;;;;;;;;;;;;;;27.32;19.70;97158.09;5112741;28;20270;-80
2024/02/22 08:55:46;;;;;;;;;;;;;;;28.21;19.02;97157.97;5113624;28;20253;-80
2024/02/22 08:58:12;;;;;;;;;;;;;;;28.37;19.01;97151.88;5111668;28;19916;-80
2024/02/22 09:00:38;;;;;;;;;;;;;;;28.45;19.03;97146.63;5113351;28;19920;-80
2024/02/22 09:03:04;;;;;;;;;;;;;;;28.59;18.44;97152.28;5113584;28;19915;-80
2024/02/22 09:05:30;;;;;;;;;;;;;;;28.13;19.09;97145.50;5109702;28;20522;-80
2024/02/22 09:07:58;;;;;;;;;;;;;;;27.58;19.61;97141.53;5093022;28;20389;-80
2024/02/22 09:10:24;;;;;;;;;;;;;;;27.58;18.91;97142.31;5096088;28;19952;-80
2024/02/22 09:12:50;;;;;;;;;;;;;;;27.15;19.41;97140.81;5092788;28;20546;-80
2024/02/22 09:15:16;;;;;;;;;;;;;;;27.53;19.45;97140.16;5094190;28;19954;-80
2024/02/22 09:17:42;;;;;;;;;;;;;;;27.62;19.01;97130.84;5092845;28;19912;-80
2024/02/22 09:20:09;;;;;;;;;;;;;;;27.94;19.14;97129.94;5092883;28;19982;-80
2024/02/22 09:22:35;;;;;;;;;;;;;;;27.73;19.31;97123.38;5092859;28;20297;-80
2024/02/22 09:25:06;;;;;;;;;;;;;;;27.84;18.93;97115.13;5092690;28;20293;-80
2024/02/22 09:27:32;;;;;;;;;;;;;;;27.36;19.53;97107.94;5096564;28;19916;-80
2024/02/22 09:30:01;;;;;;;;;;;;;;;27.66;19.66;97097.59;5113118;28;20018;-80
2024/02/22 09:32:27;;;;;;;;;;;;;;;28.10;19.25;97106.94;5096079;28;20381;-80
2024/02/22 09:34:54;;;;;;;;;;;;;;;28.46;18.77;97098.13;5093402;28;20015;-80
2024/02/22 09:37:20;;;;;;;;;;;;;;;28.35;19.22;97089.47;5092770;28;19981;-80
2024/02/22 09:39:48;;;;;;;;;;;;;;;27.49;19.17;97093.66;5092761;28;19916;-80
2024/02/22 09:42:14;;;;;;;;;;;;;;;27.48;19.46;97086.44;5098277;28;19919;-80
2024/02/22 09:44:40;;;;;;;;;;;;;;;27.11;19.69;97077.44;5108242;28;19920;-80
2024/02/22 09:47:08;;;;;;;;;;;;;;;27.34;18.70;97073.84;5092533;28;19916;-80
2024/02/22 09:49:34;;;;;;;;;;;;;;;27.88;19.21;97070.59;5094159;28;19916;-80
2024/02/22 09:52:01;;;;;;;;;;;;;;;28.40;18.93;97062.59;5096410;28;19916;-80
2024/02/22 09:54:28;;;;;;;;;;;;;;;28.30;18.79;97061.13;5096335;28;19963;-80
2024/02/22 09:56:55;;;;;;;;;;;;;;;28.10;19.37;97047.69;5096258;28;20018;-80
2024/02/22 09:59:23;;;;;;;;;;;;;;;28.08;18.71;97051.00;5096487;28;19916;-80
2024/02/22 10:01:50;;;;;;;;;;;;;;;27.89;19.11;97046.00;5097325;28;20324;-80
2024/02/22 10:04:19;;;;;;;;;;;;;;;27.96;18.82;97031.47;5112338;28;19924;-80
2024/02/22 10:06:48;;;;;;;;;;;;;;;27.93;19.48;97026.84;5097522;28;19920;-80
2024/02/22 10:09:16;;;;;;;;;;;;;;;28.03;19.37;97033.94;5096203;28;19916;-80
2024/02/22 10:11:44;;;;;;;;;;;;;;;28.13;19.14;97023.34;5095802;28;20362;-80
2024/02/22 10:14:11;;;;;;;;;;;;;;;27.69;18.97;97017.66;5096235;28;19922;-80
2024/02/22 10:16:39;;;;;;;;;;;;;;;28.50;18.46;97013.19;5096143;28;19916;-80
2024/02/22 10:19:05;;;;;;;;;;;;;;;28.58;18.89;97000.22;5096338;28;19948;-81
2024/02/22 10:21:31;;;;;;;;;;;;;;;28.66;18.31;96996.53;5096381;28;19916;-80
2024/02/22 10:23:58;;;;;;;;;;;;;;;29.43;18.45;96988.31;5096367;28;19919;-80
2024/02/22 10:26:24;;;;;;;;;;;;;;;28.12;21.47;96976.66;5095662;28;19916;-80
2024/02/22 10:29:06;;;;;;;;;;;;;;;28.35;18.31;96985.00;5095757;28;19927;-80
2024/02/22 10:31:41;;;;;;;;;;;;;;;28.84;18.54;96977.78;5096084;28;19916;-80
2024/02/22 10:34:08;;;;;;;;;;;;;;;29.81;17.94;96980.78;5096036;28;19989;-80
2024/02/22 10:36:35;;;;;;;;;;;;;;;30.16;17.31;96972.88;5108312;28;19974;-80
2024/02/22 10:39:02;;;;;;;;;;;;;;;30.24;17.52;96973.19;5110748;28;19920;-80
2024/02/22 10:41:29;;;;;;;;;;;;;;;30.56;16.80;96971.94;5095642;28;19920;-80
2024/02/22 10:43:57;;;;;;;;;;;;;;;30.33;17.38;96968.16;5095758;28;19916;-80
2024/02/22 10:46:27;;;;;;;;;;;;;;;30.86;16.67;96953.28;5095211;28;19920;-80
2024/02/22 10:48:53;;;;;;;;;;;;;;;30.70;17.22;96945.47;5095360;28;19923;-80
2024/02/22 10:51:20;;;;;;;;;;;;;;;29.20;18.08;96949.75;5096248;28;20408;-80
2024/02/22 10:53:51;;;;;;;;;;;;;;;29.28;17.69;96935.97;5109203;28;19923;-80
2024/02/22 10:56:21;;;;;;;;;;;;;;;29.89;17.80;96934.56;5114045;28;19948;-81
2024/02/22 10:58:47;;;;;;;;;;;;;;;29.78;18.36;96928.78;5115594;28;19916;-80
2024/02/22 11:01:14;;;;;;;;;;;;;;;29.63;17.54;96918.84;5114779;28;19938;-80
2024/02/22 11:03:40;;;;;;;;;;;;;;;29.18;17.91;96917.59;5111620;28;20403;-80
2024/02/22 11:06:07;;;;;;;;;;;;;;;29.91;17.33;96905.75;5087717;28;20378;-80
2024/02/22 11:08:33;;;;;;;;;;;;;;;29.88;17.40;96903.91;5094831;28;20270;-80
2024/02/22 11:11:02;;;;;;;;;;;;;;;28.84;16.74;96899.44;5111236;28;19919;-80
2024/02/22 11:13:29;;;;;;;;;;;;;;;29.19;17.48;96905.81;5113768;28;19927;-80
2024/02/22 11:15:55;;;;;;;;;;;;;;;29.33;17.59;96887.19;5115439;28;20408;-80
2024/02/22 11:18:24;;;;;;;;;;;;;;;29.62;17.47;96886.94;5115449;28;19916;-80
2024/02/22 11:20:50;;;;;;;;;;;;;;;29.25;17.13;96886.84;5115344;28;19917;-80
2024/02/22 11:23:20;;;;;;;;;;;;;;;29.84;16.72;96881.53;5114847;28;19916;-81
2024/02/22 11:25:46;;;;;;;;;;;;;;;29.90;18.09;96870.22;5114903;28;19955;-81
2024/02/22 11:28:13;;;;;;;;;;;;;;;29.60;16.82;96855.56;5113825;28;19919;-80
2024/02/22 11:30:45;;;;;;;;;;;;;;;29.55;17.74;96861.16;5113401;28;19920;-80
2024/02/22 11:33:11;;;;;;;;;;;;;;;29.05;17.40;96852.16;5114813;28;19918;-81
2024/02/22 11:35:37;;;;;;;;;;;;;;;29.29;17.33;96850.63;5101634;28;19924;-80
2024/02/22 11:38:04;;;;;;;;;;;;;;;29.84;16.84;96847.56;5114674;28;19912;-80
2024/02/22 11:40:34;;;;;;;;;;;;;;;29.27;17.63;96849.56;5096339;28;20300;-80
2024/02/22 11:43:00;;;;;;;;;;;;;;;29.52;17.01;96850.84;5106210;28;20021;-80
2024/02/22 11:45:28;;;;;;;;;;;;;;;29.32;16.96;96846.81;5094504;28;20019;-80
2024/02/22 11:47:54;;;;;;;;;;;;;;;29.94;16.90;96842.50;5095688;28;19927;-80
2024/02/22 11:50:20;;;;;;;;;;;;;;;30.07;16.70;96835.13;5094412;28;19912;-80
2024/02/22 11:52:46;;;;;;;;;;;;;;;29.66;16.61;96832.97;5093901;28;19915;-81
2024/02/22 11:55:12;;;;;;;;;;;;;;;29.93;16.73;96821.13;5094097;28;20364;-82
2024/02/22 11:57:39;;;;;;;;;;;;;;;30.29;16.54;96819.53;5093943;28;19920;-81
2024/02/22 12:00:06;;;;;;;;;;;;;;;31.02;16.58;96825.03;5094145;28;19916;-80
2024/02/22 12:02:33;;;;;;;;;;;;;;;31.01;16.25;96826.34;5093923;28;20270;-80
2024/02/22 12:04:59;;;;;;;;;;;;;;;30.64;15.75;96825.69;5108170;28;19923;-80
2024/02/22 12:07:27;;;;;;;;;;;;;;;30.73;16.21;96820.56;5107915;28;19927;-80
2024/02/22 12:09:53;;;;;;;;;;;;;;;30.95;15.71;96830.47;5093924;28;19916;-80
2024/02/22 12:12:19;;;;;;;;;;;;;;;31.28;15.57;96825.63;5093757;28;19973;-81
2024/02/22 12:14:56;;;;;;;;;;;;;;;30.93;15.74;96821.66;5093828;28;20282;-81
2024/02/22 12:17:25;;;;;;;;;;;;;;;30.57;15.89;96821.25;5094505;28;19948;-81
2024/02/22 12:19:55;;;;;;;;;;;;;;;31.12;15.60;96822.75;5093803;28;19924;-80
2024/02/22 12:22:26;;;;;;;;;;;;;;;31.28;15.84;96819.16;5094668;28;19923;-80
2024/02/22 12:24:53;;;;;;;;;;;;;;;31.87;15.24;96813.28;5093361;28;20326;-81
2024/02/22 12:27:19;;;;;;;;;;;;;;;31.76;15.18;96810.47;5093385;28;20460;-80
2024/02/22 12:29:49;;;;;;;;;;;;;;;31.90;14.91;96798.81;5093551;28;19958;-80
2024/02/22 12:32:15;;;;;;;;;;;;;;;31.77;15.25;96801.44;5093612;28;19966;-80
2024/02/22 12:34:41;;;;;;;;;;;;;;;32.19;14.85;96800.34;5075660;28;19920;-80
2024/02/22 12:37:07;;;;;;;;;;;;;;;31.97;15.23;96797.56;5075176;28;19917;-79
2024/02/22 12:39:33;;;;;;;;;;;;;;;31.38;15.19;96798.56;5110592;28;20368;-80
2024/02/22 12:42:04;;;;;;;;;;;;;;;31.96;15.02;96802.47;5110415;28;19935;-81
2024/02/22 12:44:30;;;;;;;;;;;;;;;32.44;15.73;96798.50;5093327;28;20024;-80